createdAt,value
2017-07-30T00:02:08.458Z,99.90
2017-07-30T00:04:35.437Z,99.90
2017-07-30T00:07:03.608Z,99.90
2017-07-30T00:09:32.805Z,99.90
2017-07-30T00:12:01.870Z,99.90
2017-07-30T00:14:30.909Z,99.90
2017-07-30T00:16:58.007Z,99.90
2017-07-30T00:19:25.760Z,99.90
2017-07-30T00:21:52.759Z,99.90
2017-07-30T00:24:19.733Z,99.90
2017-07-30T00:26:47.825Z,99.90
2017-07-30T00:29:14.780Z,99.90
2017-07-30T00:31:41.741Z,99.90
2017-07-30T00:34:09.453Z,99.90
2017-07-30T00:36:36.408Z,99.90
2017-07-30T00:39:04.360Z,99.90
2017-07-30T00:41:32.340Z,99.90
2017-07-30T00:43:59.297Z,99.90
2017-07-30T00:46:26.266Z,99.90
2017-07-30T00:48:53.222Z,99.90
2017-07-30T00:51:20.941Z,99.90
2017-07-30T00:53:47.892Z,99.90
2017-07-30T00:56:14.821Z,99.90
2017-07-30T00:58:41.777Z,99.90
2017-07-30T01:01:08.745Z,99.90
2017-07-30T01:03:35.677Z,99.90
2017-07-30T01:06:02.613Z,99.90
2017-07-30T01:08:29.639Z,99.90
2017-07-30T01:10:56.600Z,99.90
2017-07-30T01:13:23.528Z,99.90
2017-07-30T01:15:50.506Z,99.90
2017-07-30T01:18:17.452Z,99.90
2017-07-30T01:20:44.391Z,99.90
2017-07-30T01:23:11.353Z,99.90
2017-07-30T01:25:38.298Z,99.90
2017-07-30T01:28:05.298Z,99.90
2017-07-30T01:30:32.244Z,99.90
2017-07-30T01:32:59.220Z,99.90
2017-07-30T01:35:26.160Z,99.90
2017-07-30T01:37:53.113Z,99.90
2017-07-30T01:40:20.040Z,99.90
2017-07-30T01:42:47.017Z,99.90
2017-07-30T01:45:13.971Z,99.90
2017-07-30T01:47:41.700Z,99.90
2017-07-30T01:50:08.648Z,99.90
2017-07-30T01:52:35.610Z,99.90
2017-07-30T01:55:02.553Z,99.90
2017-07-30T01:57:29.521Z,99.90
2017-07-30T01:59:58.245Z,99.90
2017-07-30T02:02:25.196Z,99.90
2017-07-30T02:04:52.156Z,99.90
2017-07-30T02:07:20.026Z,99.90
2017-07-30T02:09:46.984Z,99.90
2017-07-30T02:12:13.916Z,99.90
2017-07-30T02:14:40.876Z,99.90
2017-07-30T02:17:08.844Z,99.90
2017-07-30T02:19:35.789Z,99.90
2017-07-30T02:22:03.630Z,99.90
2017-07-30T02:24:31.561Z,99.90
2017-07-30T02:26:59.292Z,99.90
2017-07-30T02:29:26.231Z,99.90
2017-07-30T02:31:53.156Z,99.90
2017-07-30T02:34:20.109Z,99.90
2017-07-30T02:36:47.042Z,99.90
2017-07-30T02:39:13.997Z,99.90
2017-07-30T02:41:40.935Z,99.90
2017-07-30T02:44:07.915Z,99.90
2017-07-30T02:46:34.844Z,99.90
2017-07-30T02:49:01.789Z,99.90
2017-07-30T02:51:28.734Z,99.90
2017-07-30T02:53:55.712Z,99.90
2017-07-30T02:56:24.386Z,99.90
2017-07-30T02:58:51.322Z,99.90
2017-07-30T03:01:19.264Z,99.90
2017-07-30T03:03:46.641Z,99.90
2017-07-30T03:06:13.576Z,99.90
2017-07-30T03:08:40.530Z,99.90
2017-07-30T03:11:07.474Z,99.90
2017-07-30T03:13:34.450Z,99.90
2017-07-30T03:16:03.174Z,99.90
2017-07-30T03:18:30.145Z,99.90
2017-07-30T03:20:57.089Z,99.90
2017-07-30T03:23:24.042Z,99.90
2017-07-30T03:25:50.980Z,99.90
2017-07-30T03:28:17.954Z,99.90
2017-07-30T03:30:48.226Z,99.90
2017-07-30T03:33:15.255Z,99.90
2017-07-30T03:35:42.195Z,99.90
2017-07-30T03:38:09.127Z,99.90
2017-07-30T03:40:36.870Z,99.90
2017-07-30T03:43:03.837Z,99.90
2017-07-30T03:45:30.767Z,99.90
2017-07-30T03:47:58.471Z,99.90
2017-07-30T03:50:25.442Z,99.90
2017-07-30T03:52:52.436Z,99.90
2017-07-30T03:55:20.132Z,99.90
2017-07-30T03:57:47.086Z,99.90
2017-07-30T04:00:14.054Z,99.90
2017-07-30T04:02:41.941Z,99.90
2017-07-30T04:05:09.678Z,99.90
2017-07-30T04:07:36.617Z,99.90
2017-07-30T04:10:03.576Z,99.90
2017-07-30T04:12:30.521Z,99.90
2017-07-30T04:14:57.489Z,99.90
2017-07-30T04:17:25.193Z,99.90
2017-07-30T04:19:52.154Z,99.90
2017-07-30T04:22:19.100Z,99.90
2017-07-30T04:24:46.064Z,99.90
2017-07-30T04:27:12.996Z,99.90
2017-07-30T04:29:39.961Z,99.90
2017-07-30T04:32:07.333Z,99.90
2017-07-30T04:34:35.053Z,99.90
2017-07-30T04:37:01.997Z,99.90
2017-07-30T04:39:28.971Z,99.90
2017-07-30T04:41:55.923Z,99.90
2017-07-30T04:44:25.352Z,99.90
2017-07-30T04:46:52.304Z,99.90
2017-07-30T04:49:19.277Z,99.90
2017-07-30T04:51:47.217Z,99.90
2017-07-30T04:54:14.196Z,99.90
2017-07-30T04:56:42.128Z,99.90
2017-07-30T04:59:09.065Z,99.90
2017-07-30T05:01:36.021Z,99.90
2017-07-30T05:04:02.973Z,99.90
2017-07-30T05:06:29.909Z,99.90
2017-07-30T05:08:56.841Z,99.90
2017-07-30T05:11:23.784Z,99.90
2017-07-30T05:13:50.714Z,99.90
2017-07-30T05:16:18.445Z,99.90
2017-07-30T05:18:45.388Z,99.90
2017-07-30T05:21:12.349Z,99.90
2017-07-30T05:23:39.280Z,99.90
2017-07-30T05:26:06.250Z,99.90
2017-07-30T05:28:33.194Z,99.90
2017-07-30T05:31:00.931Z,99.90
2017-07-30T05:33:27.877Z,99.90
2017-07-30T05:35:54.852Z,99.90
2017-07-30T05:38:22.701Z,99.90
2017-07-30T05:40:49.638Z,99.90
2017-07-30T05:43:17.555Z,99.90
2017-07-30T05:45:44.523Z,99.90
2017-07-30T05:48:12.377Z,99.90
2017-07-30T05:50:39.313Z,99.90
2017-07-30T05:53:06.269Z,99.90
2017-07-30T05:55:33.204Z,99.90
2017-07-30T05:58:00.165Z,99.90
2017-07-30T06:00:27.109Z,99.90
2017-07-30T06:02:54.064Z,99.90
2017-07-30T06:05:20.988Z,99.90
2017-07-30T06:07:47.973Z,99.90
2017-07-30T06:10:14.898Z,99.90
2017-07-30T06:12:41.859Z,99.90
2017-07-30T06:15:08.789Z,99.90
2017-07-30T06:17:35.748Z,99.90
2017-07-30T06:20:02.704Z,99.90
2017-07-30T06:22:30.627Z,99.90
2017-07-30T06:24:57.574Z,99.90
2017-07-30T06:27:24.547Z,99.90
2017-07-30T06:29:51.498Z,99.90
2017-07-30T06:32:18.462Z,99.90
2017-07-30T06:34:46.175Z,99.90
2017-07-30T06:37:13.141Z,99.90
2017-07-30T06:39:40.081Z,99.90
2017-07-30T06:42:07.064Z,99.90
2017-07-30T06:44:34.823Z,99.90
2017-07-30T06:47:05.096Z,99.90
2017-07-30T06:49:32.062Z,99.90
2017-07-30T06:51:59.001Z,99.90
2017-07-30T06:54:26.986Z,99.90
2017-07-30T06:56:53.942Z,99.90
2017-07-30T06:59:20.966Z,99.90
2017-07-30T07:01:48.742Z,99.90
2017-07-30T07:04:15.722Z,99.90
2017-07-30T07:06:43.518Z,99.90
2017-07-30T07:09:10.505Z,99.90
2017-07-30T07:11:39.367Z,99.90
2017-07-30T07:14:08.276Z,99.90
2017-07-30T07:16:35.209Z,99.90
2017-07-30T07:19:02.166Z,99.90
2017-07-30T07:21:29.117Z,99.90
2017-07-30T07:23:56.125Z,99.90
2017-07-30T07:26:23.085Z,99.90
2017-07-30T07:28:50.047Z,99.90
2017-07-30T07:31:16.993Z,99.90
2017-07-30T07:33:43.952Z,99.90
2017-07-30T07:36:10.890Z,99.90
2017-07-30T07:38:37.844Z,99.90
2017-07-30T07:41:04.789Z,99.90
2017-07-30T07:43:32.521Z,99.90
2017-07-30T07:45:59.466Z,99.90
2017-07-30T07:48:26.459Z,99.90
2017-07-30T07:50:54.747Z,99.90
2017-07-30T07:53:21.696Z,99.90
2017-07-30T07:55:48.672Z,99.90
2017-07-30T07:58:15.637Z,99.90
2017-07-30T08:00:44.565Z,99.90
2017-07-30T08:03:11.520Z,99.90
2017-07-30T08:05:38.546Z,99.90
2017-07-30T08:08:06.505Z,99.90
2017-07-30T08:10:33.479Z,99.90
2017-07-30T08:13:00.435Z,99.90
2017-07-30T08:15:27.416Z,99.90
2017-07-30T08:17:54.360Z,99.90
2017-07-30T08:20:22.245Z,99.90
2017-07-30T08:22:49.185Z,99.90
2017-07-30T08:25:16.127Z,99.90
2017-07-30T08:27:43.079Z,99.90
2017-07-30T08:30:10.051Z,99.90
2017-07-30T08:32:38.784Z,99.90
2017-07-30T08:35:05.748Z,99.90
2017-07-30T08:37:34.628Z,99.90
2017-07-30T08:40:01.630Z,99.90
2017-07-30T08:42:28.573Z,99.90
2017-07-30T08:44:55.693Z,99.90
2017-07-30T08:47:23.455Z,99.90
2017-07-30T08:49:50.413Z,99.90
2017-07-30T08:52:18.148Z,99.90
2017-07-30T08:54:45.094Z,99.90
2017-07-30T08:57:12.053Z,99.90
2017-07-30T08:59:39.001Z,99.90
2017-07-30T09:02:06.739Z,99.90
2017-07-30T09:04:33.673Z,99.90
2017-07-30T09:07:00.619Z,99.90
2017-07-30T09:09:27.575Z,99.90
2017-07-30T09:11:54.509Z,99.90
2017-07-30T09:14:21.474Z,99.90
2017-07-30T09:16:48.419Z,99.90
2017-07-30T09:19:15.377Z,99.90
2017-07-30T09:21:43.093Z,99.90
2017-07-30T09:24:10.592Z,99.90
2017-07-30T09:26:37.546Z,99.90
2017-07-30T09:29:04.513Z,99.90
2017-07-30T09:31:31.443Z,99.90
2017-07-30T09:33:59.165Z,99.90
2017-07-30T09:36:26.123Z,99.90
2017-07-30T09:38:53.090Z,99.90
2017-07-30T09:41:20.799Z,99.90
2017-07-30T09:43:47.764Z,99.90
2017-07-30T09:46:15.619Z,99.90
2017-07-30T09:48:44.567Z,99.90
2017-07-30T09:51:11.517Z,99.90
2017-07-30T09:53:38.482Z,99.90
2017-07-30T09:56:06.373Z,99.90
2017-07-30T09:58:33.338Z,99.90
2017-07-30T10:01:00.267Z,99.90
2017-07-30T10:03:27.206Z,99.90
2017-07-30T10:05:54.130Z,99.90
2017-07-30T10:08:21.077Z,99.90
2017-07-30T10:10:47.998Z,99.90
2017-07-30T10:13:14.939Z,99.90
2017-07-30T10:15:42.012Z,99.90
2017-07-30T10:18:08.955Z,99.90
2017-07-30T10:20:35.920Z,99.90
2017-07-30T10:23:02.857Z,99.90
2017-07-30T10:25:30.831Z,99.90
2017-07-30T10:27:57.861Z,99.90
2017-07-30T10:30:24.813Z,99.90
2017-07-30T10:32:51.778Z,99.90
2017-07-30T10:35:18.720Z,99.90
2017-07-30T10:37:45.676Z,99.90
2017-07-30T10:40:12.642Z,99.90
2017-07-30T10:42:40.370Z,99.90
2017-07-30T10:45:08.391Z,99.90
2017-07-30T10:47:35.334Z,99.90
2017-07-30T10:50:03.056Z,99.90
2017-07-30T10:52:30.005Z,99.90
2017-07-30T10:54:58.044Z,99.90
2017-07-30T10:57:24.976Z,99.90
2017-07-30T10:59:51.949Z,99.90
2017-07-30T11:02:18.909Z,99.90
2017-07-30T11:04:45.865Z,99.90
2017-07-30T11:07:13.832Z,99.90
2017-07-30T11:09:41.778Z,99.90
2017-07-30T11:12:08.868Z,99.90
2017-07-30T11:14:35.808Z,99.90
2017-07-30T11:17:03.711Z,99.90
2017-07-30T11:19:34.357Z,99.90
2017-07-30T11:22:01.309Z,99.90
2017-07-30T11:24:28.240Z,99.90
2017-07-30T11:26:55.221Z,99.90
2017-07-30T11:29:22.180Z,99.90
2017-07-30T11:31:49.132Z,99.90
2017-07-30T11:34:16.083Z,99.90
2017-07-30T11:36:45.001Z,99.90
2017-07-30T11:39:13.985Z,99.90
2017-07-30T11:41:41.903Z,99.90
2017-07-30T11:44:08.835Z,99.90
2017-07-30T11:46:39.842Z,99.90
2017-07-30T11:49:06.793Z,99.90
2017-07-30T11:51:33.755Z,99.90
2017-07-30T11:54:00.715Z,99.90
2017-07-30T11:56:29.369Z,99.90
2017-07-30T11:58:57.318Z,99.90
2017-07-30T12:01:24.288Z,99.90
2017-07-30T12:03:52.253Z,99.90
2017-07-30T12:06:19.217Z,99.90
2017-07-30T12:08:50.034Z,99.90
2017-07-30T12:11:17.024Z,99.90
2017-07-30T12:13:43.968Z,99.90
2017-07-30T12:16:10.938Z,99.90
2017-07-30T12:18:38.895Z,99.90
2017-07-30T12:21:07.779Z,99.90
2017-07-30T12:23:35.694Z,98.60
2017-07-30T12:26:02.689Z,97.30
2017-07-30T12:28:29.688Z,98.10
2017-07-30T12:30:58.675Z,98.80
2017-07-30T12:33:26.550Z,97.40
2017-07-30T12:35:53.540Z,97.10
2017-07-30T12:38:20.514Z,96.50
2017-07-30T12:40:47.493Z,96.70
2017-07-30T12:43:15.437Z,96.60
2017-07-30T12:45:43.392Z,96.40
2017-07-30T12:48:10.331Z,96.50
2017-07-30T12:50:37.309Z,96.50
2017-07-30T12:53:04.271Z,95.80
2017-07-30T12:55:31.236Z,94.90
2017-07-30T12:57:58.167Z,95.10
2017-07-30T13:00:27.119Z,93.90
2017-07-30T13:02:55.069Z,93.50
2017-07-30T13:05:22.962Z,93.60
2017-07-30T13:07:49.934Z,92.20
2017-07-30T13:10:18.697Z,87.40
2017-07-30T13:12:46.641Z,87.30
2017-07-30T13:15:13.620Z,85.00
2017-07-30T13:17:40.569Z,83.60
2017-07-30T13:20:08.517Z,81.50
2017-07-30T13:22:35.459Z,82.60
2017-07-30T13:25:02.432Z,82.30
2017-07-30T13:27:29.385Z,81.30
2017-07-30T13:29:56.365Z,79.80
2017-07-30T13:32:23.318Z,77.70
2017-07-30T13:34:50.267Z,74.20
2017-07-30T13:37:19.827Z,71.80
2017-07-30T13:39:46.825Z,67.50
2017-07-30T13:42:13.761Z,65.60
2017-07-30T13:44:40.719Z,64.20
2017-07-30T13:47:07.718Z,63.80
2017-07-30T13:49:38.503Z,64.60
2017-07-30T13:52:05.457Z,63.90
2017-07-30T13:54:33.168Z,61.60
2017-07-30T13:57:00.153Z,61.50
2017-07-30T13:59:27.869Z,60.30
2017-07-30T14:01:54.819Z,60.30
2017-07-30T14:04:21.760Z,59.20
2017-07-30T14:06:49.728Z,64.30
2017-07-30T14:09:16.693Z,68.10
2017-07-30T14:11:43.655Z,70.70
2017-07-30T14:14:10.613Z,67.40
2017-07-30T14:16:37.580Z,61.60
2017-07-30T14:19:05.498Z,65.80
2017-07-30T14:21:32.462Z,69.70
2017-07-30T14:24:00.441Z,71.70
2017-07-30T14:26:29.429Z,72.90
2017-07-30T14:28:56.423Z,67.30
2017-07-30T14:31:23.384Z,62.70
2017-07-30T14:33:54.006Z,59.20
2017-07-30T14:36:20.952Z,61.00
2017-07-30T14:38:50.978Z,64.40
2017-07-30T14:41:17.919Z,68.90
2017-07-30T14:43:44.872Z,69.90
2017-07-30T14:46:11.828Z,71.80
2017-07-30T14:48:39.783Z,72.90
2017-07-30T14:51:06.725Z,73.20
2017-07-30T14:53:35.614Z,74.90
2017-07-30T14:56:03.493Z,76.20
2017-07-30T14:58:30.462Z,76.20
2017-07-30T15:00:57.407Z,77.00
2017-07-30T15:03:24.408Z,76.40
2017-07-30T15:05:51.356Z,77.30
2017-07-30T15:08:23.379Z,76.20
2017-07-30T15:10:51.236Z,75.10
2017-07-30T15:13:18.214Z,74.80
2017-07-30T15:15:45.179Z,73.10
2017-07-30T15:18:15.369Z,82.30
2017-07-30T15:20:42.350Z,94.60
2017-07-30T15:23:09.317Z,99.90
2017-07-30T15:25:37.174Z,99.90
2017-07-30T15:28:05.079Z,99.90
2017-07-30T15:30:32.995Z,99.90
2017-07-30T15:33:01.868Z,99.90
2017-07-30T15:35:29.767Z,99.90
2017-07-30T15:37:59.681Z,99.90
2017-07-30T15:40:26.625Z,99.90
2017-07-30T15:42:57.573Z,99.90
2017-07-30T15:45:24.672Z,99.90
2017-07-30T15:47:52.404Z,99.90
2017-07-30T15:50:19.330Z,99.90
2017-07-30T15:52:46.285Z,99.90
2017-07-30T15:55:13.217Z,99.90
2017-07-30T15:57:41.154Z,99.90
2017-07-30T16:00:09.010Z,99.90
2017-07-30T16:02:35.950Z,99.90
2017-07-30T16:05:02.901Z,99.90
2017-07-30T16:07:29.881Z,99.90
2017-07-30T16:09:56.825Z,99.90
2017-07-30T16:12:23.757Z,99.90
2017-07-30T16:14:51.478Z,99.90
2017-07-30T16:17:19.192Z,99.90
2017-07-30T16:19:47.180Z,99.90
2017-07-30T16:22:14.146Z,99.90
2017-07-30T16:24:42.797Z,99.90
2017-07-30T16:27:10.499Z,99.90
2017-07-30T16:29:38.489Z,99.90
2017-07-30T16:32:05.421Z,99.90
2017-07-30T16:34:32.385Z,98.10
2017-07-30T16:36:59.356Z,97.40
2017-07-30T16:39:28.022Z,96.10
2017-07-30T16:41:54.965Z,96.20
2017-07-30T16:44:22.951Z,96.50
2017-07-30T16:46:51.905Z,99.90
2017-07-30T16:49:19.177Z,99.90
2017-07-30T16:51:46.125Z,99.90
2017-07-30T16:54:14.108Z,99.90
2017-07-30T16:56:41.105Z,99.90
2017-07-30T16:59:08.929Z,99.90
2017-07-30T17:01:36.693Z,99.90
2017-07-30T17:04:03.638Z,99.90
2017-07-30T17:06:30.645Z,99.90
2017-07-30T17:08:58.521Z,99.90
2017-07-30T17:11:25.476Z,99.90
2017-07-30T17:13:55.774Z,99.90
2017-07-30T17:16:22.732Z,99.90
2017-07-30T17:18:49.672Z,99.90
2017-07-30T17:21:16.644Z,99.90
2017-07-30T17:23:43.612Z,99.90
2017-07-30T17:26:10.552Z,99.90
2017-07-30T17:28:37.524Z,99.90
2017-07-30T17:31:05.506Z,99.90
2017-07-30T17:33:33.442Z,99.90
2017-07-30T17:36:00.442Z,99.90
2017-07-30T17:38:27.437Z,99.90
2017-07-30T17:40:54.400Z,99.90
2017-07-30T17:43:21.371Z,99.90
2017-07-30T17:45:48.350Z,99.90
2017-07-30T17:48:16.055Z,99.90
2017-07-30T17:50:43.033Z,99.90
2017-07-30T17:53:11.906Z,99.90
2017-07-30T17:55:40.762Z,99.90
2017-07-30T17:58:08.507Z,99.90
2017-07-30T18:00:35.525Z,99.90
2017-07-30T18:03:03.916Z,99.90
2017-07-30T18:05:30.858Z,99.90
2017-07-30T18:07:57.802Z,99.90
2017-07-30T18:10:24.738Z,99.90
2017-07-30T18:12:51.746Z,99.90
2017-07-30T18:15:19.607Z,99.90
2017-07-30T18:17:46.588Z,99.90
2017-07-30T18:20:13.544Z,99.90
2017-07-30T18:22:40.517Z,99.90
2017-07-30T18:25:08.231Z,99.90
2017-07-30T18:27:36.230Z,99.90
2017-07-30T18:30:03.185Z,99.90
2017-07-30T18:32:30.165Z,99.90
2017-07-30T18:34:57.111Z,99.90
2017-07-30T18:37:24.811Z,99.90
2017-07-30T18:39:51.753Z,99.90
2017-07-30T18:42:19.733Z,99.90
2017-07-30T18:44:46.697Z,99.90
2017-07-30T18:47:14.504Z,99.90
2017-07-30T18:49:41.436Z,99.90
2017-07-30T18:52:08.403Z,99.90
2017-07-30T18:54:36.190Z,99.90
2017-07-30T18:57:03.163Z,99.90
2017-07-30T18:59:30.101Z,99.90
2017-07-30T19:01:57.097Z,99.90
2017-07-30T19:04:24.965Z,99.90
2017-07-30T19:06:52.695Z,99.90
2017-07-30T19:09:20.428Z,99.90
2017-07-30T19:11:48.194Z,99.90
2017-07-30T19:14:15.169Z,99.90
2017-07-30T19:16:42.908Z,99.90
2017-07-30T19:19:09.900Z,99.90
2017-07-30T19:21:36.833Z,99.90
2017-07-30T19:24:04.638Z,99.90
2017-07-30T19:26:31.613Z,99.90
2017-07-30T19:28:59.511Z,99.90
2017-07-30T19:31:26.480Z,99.90
2017-07-30T19:33:57.056Z,99.90
2017-07-30T19:36:24.793Z,99.90
2017-07-30T19:38:51.732Z,99.90
2017-07-30T19:41:18.712Z,99.90
2017-07-30T19:43:46.533Z,99.90
2017-07-30T19:46:14.516Z,99.90
2017-07-30T19:48:42.474Z,99.90
2017-07-30T19:51:09.488Z,99.90
2017-07-30T19:53:36.434Z,99.90
2017-07-30T19:56:03.371Z,99.90
2017-07-30T19:58:30.329Z,99.90
2017-07-30T20:00:57.287Z,99.90
2017-07-30T20:03:24.250Z,99.90
2017-07-30T20:05:52.152Z,99.90
2017-07-30T20:08:19.909Z,99.90
2017-07-30T20:10:46.862Z,99.90
2017-07-30T20:13:14.637Z,99.90
2017-07-30T20:15:41.578Z,99.90
2017-07-30T20:18:08.554Z,99.90
2017-07-30T20:20:35.479Z,99.90
2017-07-30T20:23:02.459Z,99.90
2017-07-30T20:25:29.403Z,99.90
2017-07-30T20:27:56.380Z,99.90
2017-07-30T20:30:23.323Z,99.90
2017-07-30T20:32:50.294Z,99.90
2017-07-30T20:35:17.288Z,99.90
2017-07-30T20:37:44.268Z,99.90
2017-07-30T20:40:11.225Z,99.90
2017-07-30T20:42:38.225Z,99.90
2017-07-30T20:45:06.021Z,99.90
2017-07-30T20:47:32.969Z,99.90
2017-07-30T20:49:59.937Z,99.90
2017-07-30T20:52:26.881Z,99.90
2017-07-30T20:54:53.854Z,99.90
2017-07-30T20:57:20.797Z,99.90
2017-07-30T20:59:47.762Z,99.90
2017-07-30T21:02:14.723Z,99.90
2017-07-30T21:04:41.681Z,99.90
2017-07-30T21:07:08.625Z,99.90
2017-07-30T21:09:35.588Z,99.90
2017-07-30T21:12:02.546Z,99.90
2017-07-30T21:14:29.513Z,99.90
2017-07-30T21:16:56.457Z,99.90
2017-07-30T21:19:23.428Z,99.90
2017-07-30T21:21:50.371Z,99.90
2017-07-30T21:24:17.349Z,99.90
2017-07-30T21:26:44.274Z,99.90
2017-07-30T21:29:11.332Z,99.90
2017-07-30T21:31:38.251Z,99.90
2017-07-30T21:34:05.257Z,99.90
2017-07-30T21:36:32.231Z,99.90
2017-07-30T21:38:59.217Z,99.90
2017-07-30T21:41:27.086Z,99.90
2017-07-30T21:43:54.064Z,99.90
2017-07-30T21:46:21.045Z,99.90
2017-07-30T21:48:47.999Z,99.90
2017-07-30T21:51:14.957Z,99.90
2017-07-30T21:53:41.900Z,99.90
2017-07-30T21:56:08.864Z,99.90
2017-07-30T21:58:36.634Z,99.90
2017-07-30T22:01:04.587Z,99.90
2017-07-30T22:03:31.511Z,99.90
2017-07-30T22:05:58.481Z,99.90
2017-07-30T22:08:25.425Z,99.90
2017-07-30T22:10:52.404Z,99.90
2017-07-30T22:13:20.322Z,99.90
2017-07-30T22:15:47.277Z,99.90
2017-07-30T22:18:14.245Z,99.90
2017-07-30T22:20:41.217Z,99.90
2017-07-30T22:23:08.922Z,99.90
2017-07-30T22:25:35.865Z,99.90
2017-07-30T22:28:02.799Z,99.90
2017-07-30T22:30:29.839Z,99.90
2017-07-30T22:32:57.550Z,99.90
2017-07-30T22:35:24.527Z,99.90
2017-07-30T22:37:52.254Z,99.90
2017-07-30T22:40:19.225Z,99.90
2017-07-30T22:42:47.144Z,99.90
2017-07-30T22:45:14.110Z,99.90
2017-07-30T22:47:41.053Z,99.90
2017-07-30T22:50:08.013Z,99.90
2017-07-30T22:52:34.953Z,99.90
2017-07-30T22:55:02.956Z,99.90
2017-07-30T22:57:30.710Z,99.90
2017-07-30T22:59:58.442Z,99.90
2017-07-30T23:02:25.420Z,99.90
2017-07-30T23:04:52.402Z,99.90
2017-07-30T23:07:19.345Z,99.90
2017-07-30T23:09:46.284Z,99.90
2017-07-30T23:12:13.998Z,99.90
2017-07-30T23:14:40.964Z,99.90
2017-07-30T23:17:07.913Z,99.90
2017-07-30T23:19:34.861Z,99.90
2017-07-30T23:22:02.594Z,99.90
2017-07-30T23:24:29.531Z,99.90
2017-07-30T23:26:56.500Z,99.90
2017-07-30T23:29:23.437Z,99.90
2017-07-30T23:31:50.383Z,99.90
2017-07-30T23:34:17.352Z,99.90
2017-07-30T23:36:45.165Z,99.90
2017-07-30T23:39:12.134Z,99.90
2017-07-30T23:41:39.127Z,99.90
2017-07-30T23:44:07.121Z,99.90
2017-07-30T23:46:34.085Z,99.90
2017-07-30T23:49:01.037Z,99.90
2017-07-30T23:51:28.013Z,99.90
2017-07-30T23:53:54.992Z,99.90
2017-07-30T23:56:21.957Z,99.90
2017-07-30T23:58:48.925Z,99.90
